Time;durP1;ratioP1;P1;durP2;ratioP2;P2;SDS_P1;SDS_P2;PMS_P1;PMS_P2;Temp;Humidity;BMP_temperature;BMP_pressure;BME280_temperature;BME280_humidity;BME280_pressure;Samples;Min_cycle;Max_cycle;Signal;HPM_P1;HPM_P2
2023/06/25 00:00:24;;;;;;;5.25;4.10;;;15.30;1.00;;;;;;6188124;23;20194;-95
2023/06/25 00:02:51;;;;;;;5.75;4.00;;;15.30;10.70;;;;;;6188146;23;20182;-93
2023/06/25 00:05:18;;;;;;;4.97;3.92;;;15.30;1.00;;;;;;6188070;23;20173;-94
2023/06/25 00:07:45;;;;;;;5.10;3.85;;;15.20;1.00;;;;;;6188014;23;20195;-94
2023/06/25 00:10:11;;;;;;;6.93;4.90;;;15.20;1.00;;;;;;6188278;23;20258;-93
2023/06/25 00:12:38;;;;;;;5.07;4.07;;;15.20;28.90;;;;;;6188320;23;20171;-94
2023/06/25 00:15:06;;;;;;;5.82;4.65;;;15.20;1.00;;;;;;6187906;23;20660;-94
2023/06/25 00:17:34;;;;;;;7.43;4.32;;;15.20;1.00;;;;;;6188258;23;20548;-93
2023/06/25 00:20:01;;;;;;;4.90;3.87;;;15.20;1.00;;;;;;6188046;23;20175;-94
2023/06/25 00:22:28;;;;;;;5.20;4.07;;;15.20;1.00;;;;;;6188156;23;20698;-94
2023/06/25 00:24:55;;;;;;;5.40;4.17;;;15.20;1.00;;;;;;6188248;23;20251;-94
2023/06/25 00:27:22;;;;;;;7.35;4.38;;;15.20;1.00;;;;;;6187711;23;20173;-93
2023/06/25 00:29:49;;;;;;;11.93;4.13;;;15.20;1.00;;;;;;6187796;23;20176;-94
2023/06/25 00:32:16;;;;;;;5.93;4.25;;;15.20;1.00;;;;;;6188342;23;20175;-93
2023/06/25 00:34:44;;;;;;;8.18;4.40;;;15.20;1.00;;;;;;6187965;23;20631;-94
2023/06/25 00:37:17;;;;;;;9.17;4.43;;;15.20;1.00;;;;;;6188113;23;20170;-93
2023/06/25 00:39:45;;;;;;;6.78;4.20;;;15.20;1.00;;;;;;6187925;23;20161;-94
2023/06/25 00:42:11;;;;;;;6.13;3.97;;;15.20;1.00;;;;;;6187839;23;20262;-93
2023/06/25 00:44:40;;;;;;;6.47;4.10;;;15.20;99.90;;;;;;6188141;23;20171;-93
2023/06/25 00:47:11;;;;;;;8.30;4.13;;;15.20;99.90;;;;;;6188225;23;20254;-93
2023/06/25 00:49:39;;;;;;;6.82;3.90;;;15.20;99.90;;;;;;6187355;23;20183;-94
2023/06/25 00:52:10;;;;;;;10.82;4.60;;;15.20;1.00;;;;;;6187869;23;20178;-94
2023/06/25 00:54:38;;;;;;;7.57;3.60;;;15.10;1.00;;;;;;6187734;23;20155;-94
2023/06/25 00:57:06;;;;;;;11.77;7.65;;;15.10;1.00;;;;;;6188144;23;20175;-93
2023/06/25 00:59:33;;;;;;;18.93;5.37;;;15.00;1.00;;;;;;6187549;23;20202;-93
2023/06/25 01:02:10;;;;;;;8.25;4.07;;;15.00;1.00;;;;;;6188103;23;20158;-94
2023/06/25 01:04:42;;;;;;;7.38;4.32;;;14.90;1.00;;;;;;6187952;23;20159;-94
2023/06/25 01:07:17;;;;;;;9.90;3.73;;;14.80;1.00;;;;;;6187870;23;20157;-94
2023/06/25 01:09:46;;;;;;;7.03;4.10;;;14.80;1.00;;;;;;6187509;23;20178;-93
2023/06/25 01:12:14;;;;;;;6.97;3.80;;;14.70;1.00;;;;;;6187630;23;20177;-94
2023/06/25 01:14:41;;;;;;;6.47;3.80;;;14.60;1.00;;;;;;6187836;23;20177;-94
2023/06/25 01:17:09;;;;;;;6.37;3.90;;;14.60;1.00;;;;;;6187374;23;20635;-93
2023/06/25 01:19:36;;;;;;;12.90;3.90;;;14.60;1.00;;;;;;6187913;23;20178;-93
2023/06/25 01:22:04;;;;;;;9.13;3.93;;;14.60;1.00;;;;;;6187949;23;20173;-94
2023/06/25 01:24:34;;;;;;;8.70;4.80;;;14.60;1.00;;;;;;6187360;23;20173;-94
2023/06/25 01:27:02;;;;;;;11.27;3.83;;;14.60;1.00;;;;;;6187687;23;20182;-92
2023/06/25 01:29:29;;;;;;;8.50;4.10;;;14.60;1.00;;;;;;6187445;23;20198;-94
2023/06/25 01:31:57;;;;;;;8.23;4.00;;;14.60;1.00;;;;;;6187863;23;20173;-93
2023/06/25 01:34:24;;;;;;;10.05;4.30;;;14.60;1.00;;;;;;6187652;23;20182;-94
2023/06/25 01:36:52;;;;;;;8.97;3.73;;;14.60;1.00;;;;;;6187305;23;20169;-93
2023/06/25 01:39:19;;;;;;;8.65;3.78;;;14.60;1.00;;;;;;6187395;23;20172;-93
2023/06/25 01:41:48;;;;;;;8.23;3.83;;;14.70;1.00;;;;;;6187445;23;20179;-93
2023/06/25 01:44:18;;;;;;;8.53;4.30;;;14.70;1.00;;;;;;6187209;23;20179;-94
2023/06/25 01:46:44;;;;;;;8.37;4.60;;;14.70;1.00;;;;;;6187026;23;20180;-94
2023/06/25 01:49:11;;;;;;;11.33;4.53;;;14.70;1.00;;;;;;6187046;23;20518;-95
2023/06/25 01:51:38;;;;;;;8.20;4.60;;;14.70;1.00;;;;;;6187099;23;20633;-94
2023/06/25 01:54:05;;;;;;;8.53;3.67;;;14.80;1.00;;;;;;6187474;23;20173;-92
2023/06/25 01:56:32;;;;;;;10.60;4.03;;;14.90;1.00;;;;;;6186882;23;20171;-94
2023/06/25 01:59:00;;;;;;;10.18;4.22;;;14.90;1.00;;;;;;6187342;23;20627;-93
2023/06/25 02:01:27;;;;;;;5.97;3.42;;;15.10;1.00;;;;;;6187209;23;20205;-93
2023/06/25 02:03:54;;;;;;;6.43;3.97;;;15.20;99.90;;;;;;6187276;23;20194;-94
2023/06/25 02:06:21;;;;;;;8.57;4.47;;;15.30;99.90;;;;;;6186773;23;20177;-94
2023/06/25 02:08:47;;;;;;;14.50;4.50;;;15.40;99.90;;;;;;6187150;23;20192;-94
2023/06/25 02:11:14;;;;;;;12.40;3.85;;;15.50;99.90;;;;;;6187092;23;20169;-94
2023/06/25 02:13:41;;;;;;;11.65;3.30;;;15.60;99.90;;;;;;6186976;23;20175;-94
2023/06/25 02:16:09;;;;;;;10.40;3.42;;;15.70;99.90;;;;;;6186728;23;20729;-95
2023/06/25 02:18:37;;;;;;;9.90;4.00;;;15.70;99.90;;;;;;6186700;23;20165;-95
2023/06/25 02:21:04;;;;;;;12.23;4.40;;;15.70;1.00;;;;;;6186913;23;20169;-94
2023/06/25 02:23:31;;;;;;;12.13;4.40;;;15.70;1.00;;;;;;6187085;23;20165;-94
2023/06/25 02:25:57;;;;;;;10.00;3.73;;;15.60;1.00;;;;;;6186873;23;20252;-94
2023/06/25 02:28:24;;;;;;;7.25;3.88;;;15.60;1.00;;;;;;6186682;23;20190;-94
2023/06/25 02:30:51;;;;;;;8.15;3.72;;;15.60;1.00;;;;;;6187256;23;20173;-94
2023/06/25 02:33:19;;;;;;;9.35;3.58;;;15.60;1.00;;;;;;6187325;23;20170;-94
2023/06/25 02:35:46;;;;;;;15.30;3.60;;;15.50;1.00;;;;;;6187264;23;20510;-94
2023/06/25 02:38:13;;;;;;;12.80;3.70;;;15.50;1.00;;;;;;6187171;23;20171;-95
2023/06/25 02:40:40;;;;;;;8.82;4.13;;;15.50;1.00;;;;;;6186492;23;20514;-94
2023/06/25 02:43:06;;;;;;;6.88;3.88;;;15.50;1.00;;;;;;6186878;23;20715;-94
2023/06/25 02:45:33;;;;;;;9.73;4.37;;;15.40;1.00;;;;;;6187094;23;20173;-94
2023/06/25 02:48:00;;;;;;;6.97;4.30;;;15.40;1.00;;;;;;6187023;23;20180;-94
2023/06/25 02:50:28;;;;;;;8.13;4.38;;;15.40;1.00;;;;;;6186594;23;20179;-94
2023/06/25 02:52:55;;;;;;;7.38;4.05;;;15.50;99.90;;;;;;6187017;23;20172;-95
2023/06/25 02:55:22;;;;;;;8.18;4.10;;;15.50;99.90;;;;;;6186638;23;20176;-95
2023/06/25 02:57:48;;;;;;;10.43;4.30;;;15.60;99.90;;;;;;6187257;23;20173;-94
2023/06/25 03:00:16;;;;;;;7.05;4.10;;;15.70;99.90;;;;;;6186406;23;20197;-95
2023/06/25 03:02:42;;;;;;;8.65;4.30;;;15.80;99.90;;;;;;6187280;23;20622;-95
2023/06/25 03:05:09;;;;;;;7.10;4.35;;;15.90;99.90;;;;;;6186914;23;20182;-95
2023/06/25 03:07:38;;;;;;;10.90;4.35;;;15.90;99.90;;;;;;6187086;23;20247;-93
2023/06/25 03:10:05;;;;;;;8.05;4.50;;;15.90;99.90;;;;;;6188426;23;20567;-95
2023/06/25 03:12:32;;;;;;;5.13;4.10;;;16.00;99.90;;;;;;6188904;23;20178;-96
2023/06/25 03:14:59;;;;;;;6.43;3.70;;;16.10;99.90;;;;;;6189264;23;20179;-94
2023/06/25 03:17:26;;;;;;;9.70;4.35;;;16.20;1.00;;;;;;6188568;23;20172;-95
2023/06/25 03:19:52;;;;;;;7.30;3.58;;;16.30;99.90;;;;;;6188407;23;20170;-95
2023/06/25 03:22:19;;;;;;;5.25;3.35;;;16.40;24.00;;;;;;6188696;23;20254;-95
2023/06/25 03:24:47;;;;;;;5.78;3.10;;;16.50;1.00;;;;;;6189117;23;20173;-92
2023/06/25 03:27:14;;;;;;;9.20;3.75;;;16.60;1.00;;;;;;6188394;23;20256;-95
2023/06/25 03:29:41;;;;;;;12.75;4.18;;;16.70;1.00;;;;;;6188490;23;20196;-94
2023/06/25 03:32:08;;;;;;;10.75;3.85;;;16.80;1.00;;;;;;6188656;23;20238;-94
2023/06/25 03:34:35;;;;;;;11.25;3.88;;;16.90;1.00;;;;;;6188620;23;20212;-94
2023/06/25 03:37:02;;;;;;;9.23;3.83;;;17.00;1.00;;;;;;6188406;23;20173;-94
2023/06/25 03:39:28;;;;;;;10.15;3.35;;;17.10;1.00;;;;;;6188693;23;20256;-94
2023/06/25 03:41:56;;;;;;;6.05;3.45;;;17.10;1.00;;;;;;6188878;23;20201;-95
2023/06/25 03:44:23;;;;;;;10.02;3.67;;;17.20;1.00;;;;;;6188552;23;20169;-94
2023/06/25 03:46:50;;;;;;;10.48;3.85;;;17.20;1.00;;;;;;6188459;23;20169;-95
2023/06/25 03:49:17;;;;;;;8.10;3.45;;;17.20;1.00;;;;;;6188313;23;20194;-94
2023/06/25 03:51:44;;;;;;;6.53;3.50;;;17.20;1.00;;;;;;6188368;23;20669;-93
2023/06/25 03:54:10;;;;;;;10.25;3.75;;;17.20;1.00;;;;;;6188242;23;20170;-95
2023/06/25 03:56:37;;;;;;;7.45;3.60;;;17.30;99.90;;;;;;6188607;23;20176;-95
2023/06/25 03:59:05;;;;;;;8.38;3.65;;;17.40;99.90;;;;;;6188059;23;20168;-94
2023/06/25 04:01:32;;;;;;;11.27;3.88;;;17.40;99.90;;;;;;6188126;23;20208;-94
2023/06/25 04:03:59;;;;;;;7.53;3.30;;;17.50;99.90;;;;;;6188071;23;20489;-95
2023/06/25 04:06:25;;;;;;;11.10;3.30;;;17.70;99.90;;;;;;6188348;23;20176;-95
2023/06/25 04:08:52;;;;;;;6.20;3.15;;;17.90;99.90;;;;;;6188128;23;20193;-94
2023/06/25 04:11:19;;;;;;;8.65;3.65;;;18.10;99.90;;;;;;6188587;23;20620;-94
2023/06/25 04:13:46;;;;;;;7.72;3.00;;;18.40;99.90;;;;;;6188215;23;20246;-94
2023/06/25 04:16:14;;;;;;;5.53;3.15;;;18.60;99.90;;;;;;6188155;23;20245;-94
2023/06/25 04:18:42;;;;;;;10.00;3.17;;;18.90;99.90;;;;;;6188132;23;20192;-94
2023/06/25 04:21:09;;;;;;;6.00;2.92;;;19.20;99.90;;;;;;6187856;23;20162;-95
2023/06/25 04:23:36;;;;;;;5.47;3.10;;;19.30;99.90;;;;;;6188258;23;20176;-94
2023/06/25 04:26:03;;;;;;;5.13;3.22;;;19.50;99.90;;;;;;6188423;23;20170;-94
2023/06/25 04:28:30;;;;;;;6.10;3.35;;;19.70;99.90;;;;;;6187883;23;20682;-95
2023/06/25 04:30:57;;;;;;;5.13;3.13;;;19.90;99.90;;;;;;6188216;23;20252;-95
2023/06/25 04:33:25;;;;;;;4.85;3.38;;;20.00;99.90;;;;;;6187871;23;20276;-94
2023/06/25 04:35:52;;;;;;;6.32;3.50;;;20.10;67.40;;;;;;6187833;23;20244;-95
2023/06/25 04:38:19;;;;;;;5.03;3.00;;;20.30;1.00;;;;;;6188171;23;20508;-94
2023/06/25 04:40:45;;;;;;;7.75;2.85;;;20.40;1.00;;;;;;6187898;23;20646;-95
2023/06/25 04:43:12;;;;;;;6.88;3.17;;;20.50;1.00;;;;;;6188265;23;20204;-95
2023/06/25 04:45:39;;;;;;;7.30;3.50;;;20.70;1.00;;;;;;6188096;23;20248;-95
2023/06/25 04:48:06;;;;;;;6.30;3.50;;;20.70;1.00;;;;;;6188061;23;20571;-95
2023/06/25 04:50:34;;;;;;;3.92;3.20;;;20.70;1.00;;;;;;6187501;23;20264;-93
2023/06/25 04:53:01;;;;;;;8.70;3.70;;;20.80;1.00;;;;;;6188149;23;20169;-94
2023/06/25 04:55:29;;;;;;;11.10;3.78;;;20.70;1.00;;;;;;6187873;23;20172;-95
2023/06/25 04:57:56;;;;;;;6.13;3.75;;;20.60;1.00;;;;;;6187641;23;20168;-94
2023/06/25 05:00:23;;;;;;;8.15;4.25;;;20.60;19.10;;;;;;6187624;23;20197;-95
2023/06/25 05:02:50;;;;;;;9.98;3.95;;;20.60;94.80;;;;;;6187951;23;20175;-95
2023/06/25 05:05:17;;;;;;;7.53;4.20;;;20.80;99.90;;;;;;6187547;23;20180;-95
2023/06/25 05:07:45;;;;;;;9.15;4.60;;;21.00;99.90;;;;;;6187627;23;20180;-94
2023/06/25 05:10:12;;;;;;;7.22;4.85;;;21.20;99.90;;;;;;6187610;23;20224;-95
2023/06/25 05:12:39;;;;;;;9.20;5.20;;;21.40;96.00;;;;;;6187611;23;20174;-95
2023/06/25 05:15:06;;;;;;;7.15;5.00;;;21.70;99.90;;;;;;6187636;23;20169;-94
2023/06/25 05:17:33;;;;;;;8.05;5.53;;;22.00;99.90;;;;;;6187247;23;20627;-94
2023/06/25 05:20:00;;;;;;;7.75;4.68;;;22.30;1.00;;;;;;6187593;23;20162;-95
2023/06/25 05:22:27;;;;;;;6.90;5.00;;;22.40;1.00;;;;;;6187505;23;20173;-94
2023/06/25 05:24:55;;;;;;;5.55;4.50;;;22.70;1.00;;;;;;6187755;23;20503;-94
2023/06/25 05:27:22;;;;;;;5.18;4.40;;;22.80;1.00;;;;;;6187565;23;20254;-95
2023/06/25 05:29:48;;;;;;;5.93;4.60;;;22.90;1.00;;;;;;6187942;23;20196;-95
2023/06/25 05:32:17;;;;;;;7.20;4.43;;;23.10;1.00;;;;;;6187262;23;20170;-95
2023/06/25 05:34:44;;;;;;;8.05;4.03;;;23.10;1.00;;;;;;6187429;23;20170;-95
2023/06/25 05:37:11;;;;;;;6.78;3.90;;;23.10;1.00;;;;;;6187734;23;20174;-95
2023/06/25 05:39:37;;;;;;;6.72;4.00;;;23.00;1.00;;;;;;6187357;23;20165;-95
2023/06/25 05:42:06;;;;;;;5.15;3.67;;;22.80;1.00;;;;;;6188017;23;20174;-95
2023/06/25 05:44:33;;;;;;;5.00;3.80;;;22.60;1.00;;;;;;6187164;23;20170;-95
2023/06/25 05:47:00;;;;;;;4.95;3.45;;;22.50;1.00;;;;;;6187235;23;20234;-94
2023/06/25 05:49:26;;;;;;;4.85;3.25;;;22.40;1.00;;;;;;6187039;23;20192;-95
2023/06/25 05:51:53;;;;;;;4.82;3.55;;;22.40;1.00;;;;;;6187704;23;20500;-94
2023/06/25 05:54:20;;;;;;;4.10;3.70;;;22.30;1.00;;;;;;6187198;23;20193;-96
2023/06/25 05:56:47;;;;;;;5.38;3.70;;;22.30;1.00;;;;;;6187443;23;20176;-95
2023/06/25 05:59:15;;;;;;;5.10;3.40;;;22.30;1.00;;;;;;6187216;23;20256;-95
2023/06/25 06:01:42;;;;;;;5.28;3.33;;;22.20;1.00;;;;;;6187411;23;20193;-95
2023/06/25 06:04:08;;;;;;;5.38;3.20;;;22.20;1.00;;;;;;6187255;23;20173;-95
2023/06/25 06:06:35;;;;;;;6.47;3.58;;;22.20;1.00;;;;;;6187066;23;20162;-95
2023/06/25 06:09:02;;;;;;;3.88;3.10;;;22.20;1.00;;;;;;6186984;23;20173;-96
2023/06/25 06:11:29;;;;;;;4.85;3.30;;;22.20;1.00;;;;;;6187293;23;20260;-95
2023/06/25 06:13:56;;;;;;;4.97;3.47;;;22.10;1.00;;;;;;6186648;23;20170;-95
2023/06/25 06:16:24;;;;;;;6.47;3.40;;;22.10;1.00;;;;;;6187285;23;20173;-95
2023/06/25 06:18:51;;;;;;;6.07;3.50;;;22.10;1.00;;;;;;6186966;23;20162;-95
2023/06/25 06:21:18;;;;;;;3.85;3.22;;;22.20;1.00;;;;;;6187049;23;20188;-95
2023/06/25 06:23:45;;;;;;;4.03;3.42;;;22.30;1.00;;;;;;6187125;23;20212;-95
2023/06/25 06:26:11;;;;;;;3.50;3.17;;;22.50;1.00;;;;;;6187095;23;20169;-95
2023/06/25 06:28:38;;;;;;;4.38;3.47;;;22.60;1.00;;;;;;6187001;23;20620;-96
2023/06/25 06:31:05;;;;;;;3.50;2.83;;;22.70;1.00;;;;;;6187014;23;20660;-96
2023/06/25 06:33:33;;;;;;;4.05;3.08;;;22.70;99.90;;;;;;6187416;23;20244;-96
2023/06/25 06:36:00;;;;;;;3.75;3.35;;;22.70;99.90;;;;;;6187317;23;20256;-96
2023/06/25 06:38:27;;;;;;;6.00;3.55;;;22.70;99.90;;;;;;6187251;23;20233;-96
2023/06/25 06:40:53;;;;;;;5.43;3.33;;;22.60;99.90;;;;;;6187088;23;20253;-96
2023/06/25 06:43:20;;;;;;;4.07;3.55;;;22.70;99.90;;;;;;6187971;23;20637;-96
2023/06/25 06:45:47;;;;;;;4.30;3.20;;;22.70;99.90;;;;;;6189215;23;20169;-96
2023/06/25 06:48:14;;;;;;;4.82;4.03;;;22.80;99.90;;;;;;6189225;23;20176;-96
2023/06/25 06:50:42;;;;;;;7.05;5.78;;;22.80;99.90;;;;;;6189325;23;20186;-95
2023/06/25 06:53:09;;;;;;;3.80;3.35;;;22.90;99.90;;;;;;6189006;23;20170;-96
2023/06/25 06:55:36;;;;;;;4.50;3.83;;;22.90;99.90;;;;;;6189065;23;20162;-95
2023/06/25 06:58:02;;;;;;;3.72;3.08;;;23.00;99.90;;;;;;6188664;23;20170;-96
2023/06/25 07:00:30;;;;;;;4.35;3.40;;;23.00;99.90;;;;;;6188719;23;20227;-95
2023/06/25 07:02:57;;;;;;;3.88;3.13;;;23.20;99.90;;;;;;6189543;23;20240;-96
2023/06/25 07:05:24;;;;;;;8.85;6.22;;;23.30;99.90;;;;;;6189310;23;20260;-96
2023/06/25 07:07:52;;;;;;;5.00;4.10;;;23.20;99.90;;;;;;6189141;23;20252;-96
2023/06/25 07:10:19;;;;;;;4.78;3.25;;;23.10;99.90;;;;;;6188331;23;20193;-96
2023/06/25 07:12:45;;;;;;;5.15;4.63;;;23.10;99.90;;;;;;6188999;23;20176;-96
2023/06/25 07:15:12;;;;;;;4.38;3.78;;;23.10;99.90;;;;;;6189071;23;20170;-96
2023/06/25 07:17:39;;;;;;;5.50;3.53;;;23.30;99.90;;;;;;6188809;23;20177;-96
2023/06/25 07:20:08;;;;;;;4.43;3.20;;;23.30;99.90;;;;;;6188981;23;20248;-96
2023/06/25 07:22:37;;;;;;;17.63;10.32;;;23.40;99.90;;;;;;6188907;23;20180;-96
2023/06/25 07:25:07;;;;;;;11.30;7.50;;;23.40;99.90;;;;;;6188845;23;20177;-96
2023/06/25 07:27:33;;;;;;;15.90;9.38;;;23.40;99.90;;;;;;6188774;23;20172;-94
2023/06/25 07:30:00;;;;;;;14.18;9.20;;;23.50;99.90;;;;;;6188541;23;20190;-96
2023/06/25 07:32:27;;;;;;;7.22;5.03;;;23.60;99.90;;;;;;6188977;23;20191;-96
2023/06/25 07:34:54;;;;;;;4.43;3.30;;;23.70;99.90;;;;;;6188579;23;20245;-96
2023/06/25 07:37:21;;;;;;;6.85;3.60;;;23.90;99.90;;;;;;6188750;23;20650;-91
2023/06/25 07:39:47;;;;;;;8.85;6.25;;;24.10;99.90;;;;;;6188658;23;20169;-96
2023/06/25 07:42:16;;;;;;;6.13;3.55;;;24.10;99.90;;;;;;6188564;23;20269;-96
2023/06/25 07:44:43;;;;;;;3.88;3.30;;;24.20;99.90;;;;;;6188449;23;20212;-95
2023/06/25 07:47:09;;;;;;;5.60;3.78;;;24.30;99.90;;;;;;6188605;23;20560;-94
2023/06/25 07:49:36;;;;;;;4.32;3.03;;;24.40;99.90;;;;;;6188398;23;20510;-96
2023/06/25 07:52:03;;;;;;;5.68;3.58;;;24.50;99.90;;;;;;6188295;23;20274;-93
2023/06/25 07:54:30;;;;;;;5.97;3.50;;;24.50;99.90;;;;;;6187178;23;20940;-94
2023/06/25 07:56:57;;;;;;;5.40;3.60;;;24.60;99.90;;;;;;6187849;23;20174;-95
2023/06/25 07:59:25;;;;;;;4.65;3.50;;;24.60;99.90;;;;;;6188928;23;20508;-94
2023/06/25 08:01:52;;;;;;;3.80;3.20;;;24.80;99.90;;;;;;6187679;23;20503;-95
2023/06/25 08:04:19;;;;;;;5.95;4.28;;;24.80;99.90;;;;;;6190184;23;20281;-96
2023/06/25 08:06:46;;;;;;;7.85;5.07;;;24.80;99.90;;;;;;6189531;23;20176;-96
2023/06/25 08:09:13;;;;;;;4.05;3.38;;;24.80;99.90;;;;;;6189883;23;20663;-96
2023/06/25 08:11:40;;;;;;;4.85;4.05;;;24.70;99.90;;;;;;6195050;23;20308;-96
2023/06/25 08:14:08;;;;;;;4.57;3.47;;;24.70;99.90;;;;;;6188823;23;20179;-96
2023/06/25 08:16:36;;;;;;;4.57;3.55;;;24.70;99.90;;;;;;6190089;23;20170;-96
2023/06/25 08:19:03;;;;;;;6.53;4.15;;;24.90;99.90;;;;;;6189239;23;20257;-96
2023/06/25 08:21:30;;;;;;;4.10;3.47;;;25.00;99.90;;;;;;6188366;23;20176;-96
2023/06/25 08:23:57;;;;;;;4.78;3.53;;;25.00;99.90;;;;;;6189592;23;20249;-96
2023/06/25 08:26:23;;;;;;;23.83;11.18;;;25.10;99.90;;;;;;6190746;23;20200;-96
2023/06/25 08:28:50;;;;;;;15.63;8.55;;;25.10;99.90;;;;;;6192565;23;20180;-96
2023/06/25 08:31:17;;;;;;;33.25;13.63;;;24.80;99.90;;;;;;6192628;23;20256;-96
2023/06/25 08:33:46;;;;;;;14.30;8.77;;;24.60;99.90;;;;;;6202357;23;20166;-96
2023/06/25 08:36:12;;;;;;;35.78;19.45;;;24.40;99.90;;;;;;6199551;23;20206;-96
2023/06/25 08:38:39;;;;;;;27.77;15.18;;;24.30;99.90;;;;;;6208996;23;20188;-96
2023/06/25 08:41:06;;;;;;;23.73;12.55;;;24.40;99.90;;;;;;6201870;23;20165;-96
2023/06/25 08:43:34;;;;;;;15.25;9.25;;;24.50;99.90;;;;;;6197296;23;20229;-96
2023/06/25 08:46:01;;;;;;;6.28;3.40;;;24.80;99.90;;;;;;6194530;23;20180;-96
2023/06/25 08:48:30;;;;;;;9.70;5.70;;;25.10;99.90;;;;;;6192085;23;20174;-96
2023/06/25 08:51:02;;;;;;;3.95;3.28;;;25.40;99.90;;;;;;6190260;23;20189;-96
2023/06/25 08:53:30;;;;;;;13.80;8.52;;;25.80;99.90;;;;;;6190266;23;20158;-96
2023/06/25 08:55:57;;;;;;;5.40;4.50;;;25.90;99.90;;;;;;6196000;23;20193;-96
2023/06/25 08:58:25;;;;;;;4.97;3.80;;;25.90;99.90;;;;;;6194022;23;20173;-96
2023/06/25 09:00:52;;;;;;;13.73;6.97;;;25.80;99.90;;;;;;6192715;23;20177;-96
2023/06/25 09:03:19;;;;;;;4.72;3.25;;;25.80;99.90;;;;;;6198709;23;20173;-96
2023/06/25 09:05:57;;;;;;;3.75;3.28;;;25.80;99.90;;;;;;6195928;23;20178;-96
2023/06/25 09:08:26;;;;;;;3.97;3.17;;;25.90;99.90;;;;;;6190627;23;20204;-96
2023/06/25 09:10:54;;;;;;;4.88;3.40;;;26.20;99.90;;;;;;6188874;23;20593;-96
2023/06/25 09:13:22;;;;;;;3.90;3.50;;;26.40;99.90;;;;;;6190201;23;20174;-96
2023/06/25 09:15:49;;;;;;;9.90;6.72;;;26.50;99.90;;;;;;6187872;23;20173;-96
2023/06/25 09:18:20;;;;;;;8.07;5.80;;;26.60;99.90;;;;;;6187844;23;20168;-96
2023/06/25 09:20:47;;;;;;;4.30;3.50;;;26.60;99.90;;;;;;6192212;23;20151;-96
2023/06/25 09:23:19;;;;;;;10.15;6.60;;;26.60;99.90;;;;;;6189078;23;20176;-96
2023/06/25 09:25:48;;;;;;;4.07;3.58;;;26.90;99.90;;;;;;6187473;23;20181;-96
2023/06/25 09:28:15;;;;;;;5.18;3.95;;;27.30;99.90;;;;;;6187853;23;20192;-96
2023/06/25 09:30:42;;;;;;;20.27;10.63;;;27.70;99.90;;;;;;6188221;23;20268;-96
2023/06/25 09:33:11;;;;;;;21.15;11.13;;;28.10;99.90;;;;;;6187348;23;20162;-96
2023/06/25 09:35:38;;;;;;;25.35;15.02;;;28.10;99.90;;;;;;6187102;23;20190;-96
2023/06/25 09:38:05;;;;;;;15.40;9.13;;;27.80;99.90;;;;;;6192036;23;20180;-96
2023/06/25 09:40:32;;;;;;;4.63;3.85;;;27.60;99.90;;;;;;6191703;23;20252;-96
2023/06/25 09:43:05;;;;;;;15.75;10.27;;;27.50;99.90;;;;;;6190653;23;20173;-96
2023/06/25 09:45:33;;;;;;;4.22;3.55;;;27.50;99.90;;;;;;6188747;23;20166;-96
2023/06/25 09:48:01;;;;;;;5.75;3.65;;;27.60;99.90;;;;;;6188853;23;20173;-96
2023/06/25 09:50:30;;;;;;;4.22;3.38;;;27.80;99.90;;;;;;6191215;23;20260;-96
2023/06/25 09:53:00;;;;;;;4.90;3.55;;;28.10;99.90;;;;;;6190920;23;20235;-96
2023/06/25 09:55:30;;;;;;;4.70;3.40;;;28.20;99.90;;;;;;6193223;23;20651;-96
2023/06/25 09:57:57;;;;;;;4.50;3.00;;;28.40;99.90;;;;;;6195910;23;20166;-96
2023/06/25 10:00:26;;;;;;;9.07;5.57;;;28.50;99.90;;;;;;6194196;23;20593;-96
2023/06/25 10:02:54;;;;;;;3.70;3.30;;;28.80;99.90;;;;;;6197463;23;20173;-96
2023/06/25 10:05:21;;;;;;;6.43;4.05;;;28.80;99.90;;;;;;6192373;23;20190;-96
2023/06/25 10:07:48;;;;;;;6.57;3.63;;;28.80;99.90;;;;;;6193091;23;20165;-96
2023/06/25 10:10:23;;;;;;;15.65;9.75;;;28.70;99.90;;;;;;6193419;23;20197;-96
2023/06/25 10:12:50;;;;;;;10.43;7.57;;;28.40;99.90;;;;;;6190677;23;20252;-96
2023/06/25 10:15:29;;;;;;;9.30;6.07;;;28.20;99.90;;;;;;6191226;23;20194;-96
2023/06/25 10:17:59;;;;;;;5.70;4.13;;;28.00;99.90;;;;;;6191183;23;20624;-96
2023/06/25 10:20:27;;;;;;;3.72;3.40;;;27.90;99.90;;;;;;6188902;23;20240;-96
2023/06/25 10:23:05;;;;;;;4.30;3.53;;;27.90;99.90;;;;;;6188195;23;20173;-96
2023/06/25 10:25:32;;;;;;;4.15;3.55;;;28.00;99.90;;;;;;6190531;23;20169;-96
2023/06/25 10:28:06;;;;;;;7.57;5.47;;;28.20;99.90;;;;;;6192651;23;20261;-95
2023/06/25 10:30:39;;;;;;;8.50;4.90;;;28.30;99.90;;;;;;6188470;23;20158;-96
2023/06/25 10:33:07;;;;;;;7.45;5.35;;;28.30;99.90;;;;;;6190397;23;20212;-96
2023/06/25 10:35:40;;;;;;;8.02;4.75;;;28.20;99.90;;;;;;6187959;23;20200;-96
2023/06/25 10:38:07;;;;;;;5.88;3.30;;;28.10;99.90;;;;;;6187580;23;20158;-95
2023/06/25 10:40:35;;;;;;;3.95;3.10;;;28.10;99.90;;;;;;6187181;23;20261;-96
2023/06/25 10:43:02;;;;;;;3.58;3.05;;;28.00;99.90;;;;;;6187281;23;20170;-96
2023/06/25 10:45:29;;;;;;;8.05;3.90;;;27.90;99.90;;;;;;6186547;23;20166;-96
2023/06/25 10:48:12;;;;;;;4.15;3.25;;;27.80;99.90;;;;;;6187017;23;20174;-96
2023/06/25 10:50:39;;;;;;;4.47;3.28;;;27.70;99.90;;;;;;6187107;23;20233;-96
2023/06/25 10:53:11;;;;;;;3.65;3.25;;;27.70;99.90;;;;;;6186890;23;20169;-96
2023/06/25 10:55:38;;;;;;;6.60;3.38;;;27.90;99.90;;;;;;6187231;23;20154;-95
2023/06/25 10:58:05;;;;;;;4.20;3.40;;;28.20;99.90;;;;;;6187136;23;20181;-95
2023/06/25 11:00:32;;;;;;;4.63;3.70;;;28.50;99.90;;;;;;6187183;23;20257;-96
2023/06/25 11:02:59;;;;;;;6.90;3.00;;;28.70;99.90;;;;;;6187577;23;20173;-96
2023/06/25 11:05:35;;;;;;;3.95;3.45;;;28.90;99.90;;;;;;6187225;23;20504;-96
2023/06/25 11:08:04;;;;;;;4.30;3.30;;;28.90;99.90;;;;;;6187316;23;20161;-95
2023/06/25 11:10:31;;;;;;;4.15;3.40;;;29.00;99.90;;;;;;6186888;23;20176;-95
2023/06/25 11:12:58;;;;;;;6.05;3.15;;;29.10;99.90;;;;;;6187109;23;20240;-95
2023/06/25 11:15:25;;;;;;;5.90;3.63;;;29.40;99.90;;;;;;6187097;23;20220;-96
2023/06/25 11:17:53;;;;;;;3.92;3.53;;;29.50;99.90;;;;;;6187201;23;20176;-96
2023/06/25 11:20:23;;;;;;;5.45;3.53;;;29.30;99.90;;;;;;6186268;23;20515;-96
2023/06/25 11:22:51;;;;;;;4.88;3.28;;;28.90;99.90;;;;;;6187402;23;20169;-96
2023/06/25 11:25:20;;;;;;;4.55;3.80;;;28.70;99.90;;;;;;6186874;23;20166;-96
2023/06/25 11:27:48;;;;;;;5.55;3.40;;;28.50;99.90;;;;;;6187640;23;20192;-96
2023/06/25 11:30:15;;;;;;;3.50;3.20;;;28.60;99.90;;;;;;6188256;23;20173;-96
2023/06/25 11:32:42;;;;;;;3.53;3.22;;;28.50;99.90;;;;;;6189274;23;20190;-96
2023/06/25 11:35:11;;;;;;;4.40;3.60;;;28.40;99.90;;;;;;6191443;23;20197;-96
2023/06/25 11:37:45;;;;;;;3.50;3.10;;;28.40;99.90;;;;;;6192880;23;20174;-96
2023/06/25 11:40:24;;;;;;;4.05;3.35;;;28.30;99.90;;;;;;6191757;23;20248;-96
2023/06/25 11:42:52;;;;;;;5.57;3.50;;;28.20;99.90;;;;;;6191207;23;20640;-96
2023/06/25 11:45:19;;;;;;;4.32;3.30;;;28.10;99.90;;;;;;6191454;23;20197;-96
2023/06/25 11:47:50;;;;;;;5.30;3.35;;;28.00;99.90;;;;;;6200870;23;20225;-96
2023/06/25 11:50:18;;;;;;;4.00;3.60;;;28.00;99.90;;;;;;6197382;23;20185;-96
2023/06/25 11:52:45;;;;;;;4.50;3.63;;;28.20;99.90;;;;;;6204569;23;20188;-96
2023/06/25 11:55:12;;;;;;;6.15;3.22;;;28.50;99.90;;;;;;6207210;23;20174;-96
2023/06/25 11:57:41;;;;;;;5.25;3.60;;;28.50;99.90;;;;;;6208031;23;20176;-96
2023/06/25 12:00:09;;;;;;;4.20;3.45;;;28.50;99.90;;;;;;6201372;23;20267;-96
2023/06/25 12:05:04;;;;;;;6.60;3.33;;;28.90;99.90;;;;;;6174730;23;20162;-96
2023/06/25 12:07:31;;;;;;;4.88;3.33;;;29.10;99.90;;;;;;6180126;23;20166;-96
2023/06/25 12:09:58;;;;;;;4.53;3.30;;;29.20;99.90;;;;;;6193431;23;20202;-96
2023/06/25 12:15:07;;;;;;;4.60;3.55;;;29.50;99.90;;;;;;5152534;27;20561;-96
2023/06/25 12:20:09;;;;;;;4.70;3.38;;;29.10;99.90;;;;;;5245865;22;20227;-96
2023/06/25 12:22:36;;;;;;;10.15;8.07;;;29.00;99.90;;;;;;5080615;28;20298;-96
2023/06/25 12:25:04;;;;;;;3.95;3.20;;;28.90;99.90;;;;;;5072721;28;20188;-96
2023/06/25 12:27:31;;;;;;;4.75;4.00;;;28.90;99.90;;;;;;5084935;28;20199;-96
2023/06/25 12:29:58;;;;;;;4.45;3.55;;;29.10;99.90;;;;;;5080633;28;20184;-96
2023/06/25 12:32:26;;;;;;;4.13;3.40;;;29.20;99.90;;;;;;5076018;28;20206;-96
2023/06/25 12:34:53;;;;;;;5.38;3.90;;;29.10;99.90;;;;;;5079646;28;20247;-96
2023/06/25 12:37:20;;;;;;;4.90;3.83;;;29.20;99.50;;;;;;5076199;28;20260;-96
2023/06/25 12:39:48;;;;;;;5.15;3.78;;;29.20;99.90;;;;;;5078767;28;20223;-96
2023/06/25 12:42:15;;;;;;;5.03;4.35;;;29.20;97.90;;;;;;5076783;28;20228;-96
2023/06/25 12:44:42;;;;;;;5.18;4.00;;;29.10;96.50;;;;;;5080127;28;20536;-96
2023/06/25 12:47:09;;;;;;;4.88;3.38;;;29.10;96.30;;;;;;5079273;28;20200;-96
2023/06/25 12:49:37;;;;;;;3.88;3.15;;;29.40;95.80;;;;;;5078065;28;20196;-96
2023/06/25 12:52:04;;;;;;;4.35;3.20;;;29.40;99.80;;;;;;5062651;28;20188;-96
2023/06/25 12:54:31;;;;;;;3.85;3.40;;;29.40;99.90;;;;;;5075140;28;20262;-96
2023/06/25 12:56:58;;;;;;;5.10;3.25;;;29.30;92.70;;;;;;5081217;28;20254;-96